Latest Coastal Weather Observations for Holmes Reef

IDQ60701

Issued at 11:35 am EST Monday 24 November 2014 (issued every 10 minutes, with the page automatically refreshed every 10 minutes)

About coastal observations | Map of coastal stations | Coastal observations for QLD | Marine services | Other Formats
Station Details ID: 200732 Name: HOLMES REEF Lat: -16.47 Lon: 147.87 Height: 1.9 m
Data from the previous 72 hours. | See also: Recent months at Holmes Reef
Date/Time
EST
Temp

°C
Wind Pressure Rain
since 9am
mm
Weather Cloud Vis
km
Sea
Height
m
Swell
Dir
 
Speed
knots
Gust
knots
hPa Trend Height
m
Period
s
Dir
24/11:30am 27.2 ESE 16 18 1012.4 - - - - - - - - -
24/11:15am 27.2 ESE 16 - 1012.2 - - - - - - - - -
24/11:00am 27.2 ESE 15 17 1012.5 - - - - - - - - -
24/10:30am 27.1 ESE 16 18 1012.7 - - - - - - - - -
24/10:15am 27.4 ESE 15 - 1012.5 - - - - - - - - -
24/10:00am 27.3 ESE 16 18 1012.9 - - - - - - - - -
24/09:30am 27.3 E 16 18 1013.1 - - - - - - - - -
24/09:15am 27.3 ESE 14 - 1012.9 - - - - - - - - -
24/09:00am 27.3 E 14 17 1013.2 - - - - - - - - -
24/08:30am 27.2 E 14 16 1013.1 - - - - - - - - -
24/08:15am 27.2 E 15 - 1012.8 - - - - - - - - -
24/08:00am 27.1 E 15 17 1013.0 - - - - - - - - -
24/07:30am 27.0 E 15 17 1012.8 - - - - - - - - -
24/07:15am 27.2 ESE 15 - 1012.3 - - - - - - - - -
24/07:00am 27.2 ESE 15 17 1012.6 - - - - - - - - -
24/06:30am 27.0 E 14 17 1012.4 - - - - - - - - -
24/06:15am 26.9 ESE 13 - 1011.9 - - - - - - - - -
24/06:00am 26.7 ESE 14 17 1012.1 - - - - - - - - -
24/05:30am 26.6 E 13 16 1011.9 - - - - - - - - -
24/05:15am 26.6 E 13 - 1011.5 - - - - - - - - -
24/05:00am 26.6 E 14 15 1011.8 - - - - - - - - -
24/04:30am 26.6 ESE 13 14 1011.8 - - - - - - - - -
24/04:15am 26.8 E 12 - 1011.5 - - - - - - - - -
24/04:00am 26.7 E 13 15 1011.8 - - - - - - - - -
24/03:30am 26.6 E 13 15 1011.7 - - - - - - - - -
24/03:15am 26.8 E 14 - 1011.3 - - - - - - - - -
24/03:00am 26.7 E 13 15 1011.5 - - - - - - - - -
24/02:30am 26.7 E 14 16 1011.8 - - - - - - - - -
24/02:15am 26.7 E 14 - 1011.6 - - - - - - - - -
24/02:00am 26.7 E 15 17 1011.9 - - - - - - - - -
24/01:30am 26.8 E 14 16 1012.2 - - - - - - - - -
24/01:15am 26.8 E 14 - 1012.3 - - - - - - - - -
24/01:00am 26.9 E 13 15 1012.7 - - - - - - - - -
24/12:30am 26.9 E 14 16 1013.1 - - - - - - - - -
24/12:15am 26.9 E 15 - 1012.9 - - - - - - - - -
24/12:00am 26.9 E 14 17 1013.4 - - - - - - - - -
 
Date/Time
EST
Temp

°C
Wind Pressure Rain
since 9am
mm
Weather Cloud Vis
km
Sea
Height
m
Swell
Dir
 
Speed
knots
Gust
knots
hPa Trend Height
m
Period
s
Dir
23/11:30pm 27.0 E 14 16 1013.6 - - - - - - - - -
23/11:15pm 26.9 E 14 - 1013.5 - - - - - - - - -
23/11:00pm 26.9 E 13 15 1013.9 - - - - - - - - -
23/10:30pm 27.0 ESE 13 15 1013.9 - - - - - - - - -
23/10:15pm 27.0 E 14 - 1013.7 - - - - - - - - -
23/10:00pm 26.9 E 14 15 1014.0 - - - - - - - - -
23/09:30pm 26.7 SE 12 15 1013.9 - - - - - - - - -
23/09:15pm 26.4 ESE 14 - 1013.4 - - - - - - - - -
23/09:00pm 26.6 ESE 14 16 1013.5 - - - - - - - - -
23/08:30pm 26.5 E 16 18 1013.4 - - - - - - - - -
23/08:15pm 27.1 ESE 15 - 1012.8 - - - - - - - - -
23/08:00pm 27.1 ESE 14 17 1012.9 - - - - - - - - -
23/07:30pm 27.0 SE 15 17 1012.6 - - - - - - - - -
23/07:15pm 27.0 ESE 15 - 1012.2 - - - - - - - - -
23/07:00pm 27.0 SE 15 17 1012.4 - - - - - - - - -
23/06:30pm 27.1 SE 15 17 1012.1 - - - - - - - - -
23/06:15pm 27.0 SE 15 - 1011.8 - - - - - - - - -
23/06:00pm 27.1 SE 16 17 1012.0 - - - - - - - - -
23/05:30pm 27.2 SE 15 17 1011.9 - - - - - - - - -
23/05:15pm 27.1 SE 16 - 1011.4 - - - - - - - - -
23/05:00pm 27.2 SE 15 17 1011.6 - - - - - - - - -
23/04:30pm 27.1 SE 14 17 1011.7 - - - - - - - - -
23/04:15pm 27.1 SE 14 - 1011.4 - - - - - - - - -
23/04:00pm 27.2 SE 12 14 1011.7 - - - - - - - - -
23/03:30pm 27.2 SE 13 15 1011.8 - - - - - - - - -
23/03:15pm 27.1 SE 12 - 1011.6 - - - - - - - - -
23/03:00pm 27.1 SE 13 14 1012.0 - - - - - - - - -
23/02:30pm 27.1 SE 14 15 1012.2 - - - - - - - - -
23/02:15pm 27.2 SE 13 - 1012.1 - - - - - - - - -
23/02:00pm 27.3 SE 11 13 1012.6 - - - - - - - - -
23/01:30pm 27.2 SE 12 13 1012.9 - - - - - - - - -
23/01:15pm 27.2 SE 11 - 1012.8 - - - - - - - - -
23/01:00pm 27.2 SE 12 13 1013.2 - - - - - - - - -
23/12:30pm 27.2 SE 10 11 1013.4 - - - - - - - - -
23/12:15pm 27.1 SE 11 - 1013.2 - - - - - - - - -
23/12:00pm 27.2 SE 11 13 1013.7 - - - - - - - - -
23/11:15am 27.2 SE 12 - 1013.9 - - - - - - - - -
23/11:00am 27.2 ESE 11 13 1014.3 - - - - - - - - -
23/10:30am 27.2 ESE 12 13 1014.4 - - - - - - - - -
23/10:15am 27.1 ESE 12 - 1014.1 - - - - - - - - -
23/10:00am 27.1 ESE 12 14 1014.5 - - - - - - - - -
23/09:30am 27.1 ESE 13 15 1014.4 - - - - - - - - -
23/09:15am 27.0 ESE 13 - 1014.1 - - - - - - - - -
23/09:00am 27.1 ESE 14 16 1014.4 - - - - - - - - -
23/08:30am 27.0 ESE 14 15 1014.4 - - - - - - - - -
23/08:15am 27.0 ESE 14 - 1013.9 - - - - - - - - -
23/08:00am 27.1 ESE 14 16 1014.1 - - - - - - - - -
23/07:30am 26.9 ESE 14 16 1014.0 - - - - - - - - -
23/07:15am 27.1 ESE 14 - 1013.5 - - - - - - - - -
23/07:00am 26.9 ESE 14 15 1013.6 - - - - - - - - -
23/06:30am 26.8 ESE 14 16 1013.3 - - - - - - - - -
23/06:15am 26.7 ESE 14 - 1012.8 - - - - - - - - -
23/06:00am 26.6 ESE 15 17 1012.8 - - - - - - - - -
23/05:30am 26.5 ESE 14 15 1012.6 - - - - - - - - -
23/05:15am 26.3 E 12 - 1012.2 - - - - - - - - -
23/05:00am 26.3 E 12 14 1012.4 - - - - - - - - -
23/04:30am 26.6 E 16 19 1012.1 - - - - - - - - -
23/04:15am 26.5 ESE 16 - 1011.6 - - - - - - - - -
23/04:00am 26.5 E 15 17 1011.9 - - - - - - - - -
23/03:30am 26.5 ESE 13 15 1011.8 - - - - - - - - -
23/03:15am 26.5 ESE 13 - 1011.4 - - - - - - - - -
23/03:00am 26.5 ESE 13 15 1011.9 - - - - - - - - -
23/02:30am 26.5 ESE 13 15 1011.9 - - - - - - - - -
23/02:15am 26.5 ESE 12 - 1011.6 - - - - - - - - -
23/02:00am 26.5 E 12 14 1011.8 - - - - - - - - -
23/01:30am 26.5 E 14 16 1012.0 - - - - - - - - -
23/01:15am 26.5 ESE 14 - 1011.9 - - - - - - - - -
23/01:00am 26.6 ESE 13 15 1012.3 - - - - - - - - -
23/12:30am 26.5 ESE 13 15 1012.8 - - - - - - - - -
23/12:15am 26.5 ESE 13 - 1012.6 - - - - - - - - -
23/12:00am 26.5 ESE 13 14 1013.1 - - - - - - - - -
 
Date/Time
EST
Temp

°C
Wind Pressure Rain
since 9am
mm
Weather Cloud Vis
km
Sea
Height
m
Swell
Dir
 
Speed
knots
Gust
knots
hPa Trend Height
m
Period
s
Dir
22/11:30pm 26.7 E 14 16 1013.5 - - - - - - - - -
22/11:15pm 26.7 E 14 - 1013.4 - - - - - - - - -
22/11:00pm 26.7 ESE 14 16 1013.8 - - - - - - - - -
22/10:30pm 26.6 E 13 15 1013.8 - - - - - - - - -
22/10:15pm 26.6 E 14 - 1013.4 - - - - - - - - -
22/10:00pm 26.6 E 14 16 1013.5 - - - - - - - - -
22/09:30pm 26.6 ESE 13 15 1013.4 - - - - - - - - -
22/09:15pm 26.6 ESE 14 - 1013.1 - - - - - - - - -
22/09:00pm 26.7 ESE 14 17 1013.2 - - - - - - - - -
22/08:30pm 26.7 E 15 16 1013.0 - - - - - - - - -
22/08:15pm 26.8 E 15 - 1012.5 - - - - - - - - -
22/08:00pm 26.8 E 15 17 1012.7 - - - - - - - - -
22/07:30pm 26.9 E 14 17 1012.5 - - - - - - - - -
22/07:15pm 26.9 E 15 - 1012.1 - - - - - - - - -
22/07:00pm 26.9 ESE 15 16 1012.4 - - - - - - - - -
22/06:30pm 26.9 ESE 14 16 1012.1 - - - - - - - - -
22/06:15pm 27.0 ESE 14 - 1011.7 - - - - - - - - -
22/06:00pm 26.9 ESE 14 16 1012.0 - - - - - - - - -
22/05:30pm 27.0 ESE 13 15 1011.8 - - - - - - - - -
22/05:15pm 27.1 SE 12 - 1011.6 - - - - - - - - -
22/05:00pm 27.1 SE 12 14 1011.9 - - - - - - - - -
22/04:30pm 27.0 SE 12 13 1011.7 - - - - - - - - -
22/04:15pm 27.0 ESE 11 - 1011.5 - - - - - - - - -
22/04:00pm 26.9 ESE 12 13 1011.7 - - - - - - - - -
22/03:30pm 27.1 ESE 11 13 1011.8 - - - - - - - - -
22/03:15pm 27.0 SE 11 - 1011.6 - - - - - - - - -
22/03:00pm 27.0 ESE 10 13 1011.9 - - - - - - - - -
22/02:30pm 27.0 ESE 10 12 1011.9 - - - - - - - - -
22/02:15pm 27.0 SE 10 - 1011.7 - - - - - - - - -
22/02:00pm 27.0 SE 10 12 1012.1 - - - - - - - - -
22/01:30pm 26.8 SE 10 11 1012.3 - - - - - - - - -
22/01:15pm 26.9 SE 10 - 1012.0 - - - - - - - - -
22/01:00pm 26.9 ESE 10 12 1012.4 - - - - - - - - -
22/12:30pm 26.7 ESE 10 12 1012.7 - - - - - - - - -
22/12:15pm 26.7 ESE 10 - 1012.6 - - - - - - - - -
22/12:00pm 26.7 ESE 11 12 1013.1 - - - - - - - - -
22/11:30am 26.7 E 12 14 1013.3 - - - - - - - - -
22/11:15am 26.7 E 12 - 1013.1 - - - - - - - - -
22/11:00am 26.8 E 12 14 1013.5 - - - - - - - - -
22/10:30am 26.8 ESE 12 13 1013.8 - - - - - - - - -
22/10:15am 26.9 E 12 - 1013.6 - - - - - - - - -
22/10:00am 27.0 ESE 11 13 1014.0 - - - - - - - - -
22/09:30am 26.9 E 10 12 1014.2 - - - - - - - - -
22/09:15am 26.9 ESE 10 - 1013.9 - - - - - - - - -
22/09:00am 27.0 ESE 10 11 1014.2 - - - - - - - - -
22/08:30am 27.0 ESE 10 12 1014.1 - - - - - - - - -
22/08:15am 27.0 ESE 11 - 1013.8 - - - - - - - - -
22/08:00am 26.9 ESE 12 13 1014.0 - - - - - - - - -
22/07:30am 27.0 ESE 12 13 1013.8 - - - - - - - - -
22/07:15am 26.8 ESE 12 - 1013.5 - - - - - - - - -
22/07:00am 26.7 ESE 11 13 1013.8 - - - - - - - - -
22/06:30am 26.7 E 8 9 1013.3 - - - - - - - - -
22/06:15am 26.6 E 8 - 1012.8 - - - - - - - - -
22/06:00am 26.4 E 7 8 1012.9 - - - - - - - - -
22/05:30am 26.4 ESE 8 10 1012.8 - - - - - - - - -
22/05:15am 26.4 ESE 9 - 1012.4 - - - - - - - - -
22/05:00am 26.3 E 8 9 1012.5 - - - - - - - - -
22/04:30am 26.4 E 10 12 1012.0 - - - - - - - - -
22/04:15am 26.5 E 9 - 1011.6 - - - - - - - - -
22/04:00am 26.5 E 9 11 1011.8 - - - - - - - - -
22/03:30am 26.5 E 10 12 1011.6 - - - - - - - - -
22/03:15am 26.4 E 11 - 1011.4 - - - - - - - - -
22/03:00am 26.4 E 11 13 1011.6 - - - - - - - - -
22/02:30am 26.4 ENE 12 14 1011.5 - - - - - - - - -
22/02:15am 26.4 E 10 - 1011.2 - - - - - - - - -
22/02:00am 26.5 E 10 13 1011.6 - - - - - - - - -
22/01:30am 26.4 E 12 13 1011.8 - - - - - - - - -
22/01:15am 26.4 E 13 - 1011.7 - - - - - - - - -
22/01:00am 26.4 E 13 15 1012.1 - - - - - - - - -
22/12:30am 26.4 E 14 16 1012.4 - - - - - - - - -
22/12:15am 26.5 E 14 - 1012.2 - - - - - - - - -
22/12:00am 26.5 E 14 16 1012.7 - - - - - - - - -
 
Date/Time
EST
Temp

°C
Wind Pressure Rain
since 9am
mm
Weather Cloud Vis
km
Sea
Height
m
Swell
Dir
 
Speed
knots
Gust
knots
hPa Trend Height
m
Period
s
Dir
21/11:30pm 26.5 E 14 17 1013.1 - - - - - - - - -
21/11:15pm 26.6 E 14 - 1012.9 - - - - - - - - -
21/11:00pm 26.6 E 14 16 1013.3 - - - - - - - - -
21/10:30pm 26.6 E 15 17 1013.5 - - - - - - - - -
21/10:15pm 26.7 E 15 - 1013.2 - - - - - - - - -
21/10:00pm 26.7 E 15 17 1013.5 - - - - - - - - -
21/09:30pm 26.7 E 16 18 1013.3 - - - - - - - - -
21/09:15pm 26.7 E 16 - 1012.9 - - - - - - - - -
21/09:00pm 26.8 E 15 17 1013.1 - - - - - - - - -
21/08:30pm 26.7 E 14 16 1012.7 - - - - - - - - -
21/08:15pm 26.7 E 15 - 1012.3 - - - - - - - - -
21/08:00pm 26.7 E 15 17 1012.4 - - - - - - - - -
21/07:30pm 26.7 E 11 13 1012.3 - - - - - - - - -
21/07:15pm 26.6 E 11 - 1011.8 - - - - - - - - -
21/07:00pm 26.7 E 11 13 1012.2 - - - - - - - - -
21/06:30pm 26.7 E 11 13 1012.2 - - - - - - - - -
21/06:15pm 26.7 E 11 - 1011.7 - - - - - - - - -
21/06:00pm 26.7 ESE 12 13 1011.9 - - - - - - - - -
21/05:30pm 26.8 ESE 11 13 1011.8 - - - - - - - - -
21/05:15pm 26.8 ESE 10 - 1011.4 - - - - - - - - -
21/05:00pm 26.8 ESE 11 13 1011.6 - - - - - - - - -
21/04:30pm 26.8 ESE 10 11 1011.6 - - - - - - - - -
21/04:15pm 26.8 ESE 10 - 1011.3 - - - - - - - - -
21/04:00pm 26.8 ESE 10 11 1011.6 - - - - - - - - -
21/03:30pm 26.8 ESE 10 11 1011.6 - - - - - - - - -
21/03:15pm 26.9 ESE 9 - 1011.4 - - - - - - - - -
21/03:00pm 26.9 SE 10 11 1011.8 - - - - - - - - -
21/02:30pm 27.0 ESE 10 11 1012.1 - - - - - - - - -
21/02:15pm 27.0 ESE 10 - 1012.0 - - - - - - - - -
21/02:00pm 26.9 SE 8 9 1012.5 - - - - - - - - -
21/01:30pm 26.8 SE 8 10 1012.9 - - - - - - - - -
21/01:15pm 26.9 SE 8 - 1012.8 - - - - - - - - -
21/01:00pm 26.7 SE 7 9 1013.2 - - - - - - - - -
21/12:30pm 26.7 SE 8 11 1013.6 - - - - - - - - -
21/12:15pm 26.7 SE 8 - 1013.7 - - - - - - - - -
21/12:00pm 26.7 SE 8 10 1014.1 - - - - - - - - -

Other Formats:

Comma delimited format used in spreadsheet applications
http://www.bom.gov.au/fwo/IDQ60701/IDQ60701.94289.axf

JavaScript Object Notation format (JSON) in row-major order
http://www.bom.gov.au/fwo/IDQ60701/IDQ60701.94289.json